Terminal Aerodrome Forecast
Issued by NWS Blacksburg, VA

Home | Current Version | Previous Version | Text Only | Print | Product List | Glossary On
Versions: 1 2 3 4 5 6 7 8 9 10 11 12 13 14 15 16 17 18 19 20 21 22 23 24 25 26 27 28 29 30 31 32 33 34 35 36 37 38 39 40
000
FTUS41 KRNK 202330
TAFBLF
TAF
KBLF 202330Z 2100/2124 VRB03KT P6SM BKN035
     FM210200 00000KT P6SM SCT030
      TEMPO 2108/2109 OVC020
     FM211000 00000KT 2SM BR SCT008 BKN015
     FM211200 00000KT P6SM SCT015
     FM211400 00000KT P6SM SCT025
     FM211900 00000KT P6SM BKN035=

USA.gov is the U.S. government's official web portal to all federal, state and local government web resources and services.